Skip Navigation Links
NOAA logo - Click to go to the NOAA homepage
NOAA's National Weather Service
Alaska Aviation Weather Unit
  NWS logo - Click to go to the NWS homepage
Left Navbar Graphic     09 AKDT = 17 GMT

   
NOAA is celebrating 200 years of science, service, and stewardship. Visit the NOAA 200th celebration Web site to learn more.
USA.gov is the U.S. Government's official Web portal to all Federal, state and local government Web resources and services.
Facebook
NWS on Facebook

Important Change Regarding the AAWU Web Presence

 

Over the last several months, the AAWU has been working to navigate its webpages to a nationally supported server. Security, as well as other needs, have necessitated the change.  In the process, we have made an effort to enhance the functionality of our website, as well as some of our products. As of June 20, 2017, aawu.arh.noaa.gov will be discontinued. The new AAWU web address is weather.gov/aawu. It is now live and will run in-parallel with the old site until it is discontinued. Please send any feedback or questions regarding the new webpages to nws.ar.aawu.webauthors@noaa.gov.  Thank you for your patience during this time of transition.
AAWU Home :: Display TAF Add Bookmark
TAF PAHN 291120Z 2912/3012 10005KT P6SM FEW070 BKN180
     FM292000 13008KT P6SM BKN050 OVC120
     FM300400 09005KT P6SM SCT025 BKN120
      AMD LTD TO CLD VIS AND WIND=

METAR PAHN 291154Z AUTO 10007KT 10SM CLR 11/04 A2995 RMK AO2 SLP146 T01060039 10150 20094 53005 TSNO= METAR PAHN 291254Z AUTO 08008G15KT 10SM FEW080 14/04 A2996 RMK AO2 SLP149 T01390039 TSNO= METAR PAHN 291354Z AUTO 11007KT 10SM CLR 13/05 A2997 RMK AO2 SLP150 T01280050 TSNO= METAR PAHN 291454Z AUTO 13008KT 10SM CLR 13/06 A2997 RMK AO2 SLP152 T01330061 51006 TSNO= METAR PAHN 291554Z AUTO 14008KT 10SM BKN080 14/06 A2998 RMK AO2 SLP155 T01440061 TSNO= METAR PAHN 291654Z AUTO 12011G19KT 10SM FEW075 14/06 A2999 RMK AO2 SLP158 T01440061 TSNO=
 Alaska TAF Map

NOAA's National Weather Service
Alaska Aviation Weather Unit
6930 Sand Lake Road
Anchorage, AK 99502-1845
Disclaimer
Credits
Glossary
Privacy Policy
About Us
Career Opportunities
Contact AAWU Internet Services Site last modified: April, 17th 2012